North Grafton, Massachusetts
Current Conditions -  °F | °C
As of 2:54 PM on Sunday 25 Jan 2015 (Local Time) from KORH Reporting Station
Clear Clear  
Wind Chill: 19°   Ceiling: Unl
Heat Index: 30°   Visibility: 10mi
Dew Point:   Wind: 15mph
Humidity: 36%   Direction: 260°W
Pressure: 29.68"   Gusts: 24mph
Location:  42.23°N, 71.71°W
Report Text: KORH 251954Z 26013G21KT 10SM CLR M01/M14 A2968 RMK AO2 SLP062 T10111144
Loading
Personal Weather Stations






























Interactive Weather Map New forecast layout! Learn more

10-Day Weather Forecast

Advertisements
Track Severe Weather on mobile